Incheon International Airport
RKSI : now visible

Airfield :











YOU CAN JOIN US ON...

 
LOGIN :

Register | Disclaimer

   EN    FR    IT 

 









Legend :    VFR   Marginal VFR   IFR   Intensive IFR   Very Intensive IFR
Visi :
Ceiling :
>= 8 km
>= 3000ft
5 to 8 km
1000 to 3000 ft
1500m to 5 km
500 to 1000 ft
800 to 1500m
200 to 500 ft
< 800m
< 200 ft
Symbols :   Thunderstorms  Fog  Heavy snow  Heavy precipitations  Wind > 20 kt






- Airport Elevation : 23 ft
- IATA code : ICN


RKSI - Incheon International

CURRENT METAR :
  • 250600Z 24006KT 210V280 8000 SCT008 BKN180 16/12 Q1012 NOSIG

EXPIRED METARs :
  • 250530Z 23005KT 190V290 8000 BKN009 17/12 Q1012 NOSIG
  • 250500Z 23005KT 190V270 9000 BKN008 15/12 Q1012 NOSIG
  • 250430Z 23007KT 210V270 9000 BKN005 15/12 Q1013 NOSIG
  • 250400Z 23009KT 8000 BKN004 14/12 Q1013 NOSIG
  • 250330Z 23008KT 8000 BKN004 15/12 Q1013 NOSIG

TAF TAF RKSI
Valid from the 25 at 06:00 until the 26 at 12:00 UTC


250500Z 2506/2612 26006KT 6000 BKN005 BKN012 TN12/2521Z TX18/2604Z
BECMG 2510/2511 23005KT 3500 BR
TEMPO 2517/2524 30005KT 1200 BKN001
BECMG 2600/2601 6000 NSW
BECMG 2605/2606 20007KT 4200 -RA SCT010 BKN025 OVC100
BECMG 2610/2611 32008KT BR FEW010 SCT030
RKRR FIR / Asia



MET'MAP, your aeronautical weather chart ! - Copyright ORBIFLY December 2007 - Disclaimer

ORBIFLY MET'MAP TEAM :

Programming & Development : Alexandra Zaïnal
Concept & original design : Baudouin d'Aumeries
Assistance for programming : Marc-Olivier Méhu
Technical & hardware support : Manuel Goepfert

Contact : metmap@orbifly.com




SOURCES & CREDITS :

   NOAA       Earth
Advisory